Curry Rivel, United Kingdom
Current Conditions -  °F | °C
As of 1:50 PM on Tuesday 21 Oct 2014 (Local Time) from EGDY Reporting Station
Rain Showers Rain Showers  
Wind Chill: 55°   Ceiling: Unl
Heat Index: 55°   Visibility: 6mi
Dew Point: 39°   Wind: 36mph
Humidity: 54%   Direction: 290°WNW
Pressure: 29.88"   Gusts: 49mph
Location:  51.02°N, 2.87°W
Report Text: EGDY 211250Z 29031G43KT 9999 -SHRA FEW010 SCT030 13/04 Q1012 BLU NOSIG
Loading
Personal Weather Stations






























Interactive Weather Map New forecast layout! Learn more

10-Day Weather Forecast

Advertisements
Track Severe Weather on mobile